Time;durP1;ratioP1;P1;durP2;ratioP2;P2;SDS_P1;SDS_P2;PMS_P1;PMS_P2;Temp;Humidity;BMP_temperature;BMP_pressure;BME280_temperature;BME280_humidity;BME280_pressure;Samples;Min_cycle;Max_cycle;Signal;HPM_P1;HPM_P2
2021/09/28 00:02:17;;;;;;;6.95;1.02;;;8.50;88.00;;;;;;4938196;29;20043;-79
2021/09/28 00:09:23;;;;;;;9.98;1.35;;;8.50;88.20;;;;;;4938251;29;20039;-79
2021/09/28 00:11:51;;;;;;;11.02;1.15;;;8.50;88.00;;;;;;4937595;29;20059;-79
2021/09/28 00:14:20;;;;;;;7.10;1.02;;;8.50;88.00;;;;;;4920884;29;20056;-78
2021/09/28 00:16:48;;;;;;;9.15;1.17;;;8.40;88.20;;;;;;4938363;29;20051;-78
2021/09/28 00:19:16;;;;;;;8.48;1.40;;;8.40;88.30;;;;;;4938341;29;20043;-78
2021/09/28 00:21:44;;;;;;;7.45;1.38;;;8.40;88.30;;;;;;4921287;29;20055;-78
2021/09/28 00:24:12;;;;;;;8.70;1.30;;;8.30;88.40;;;;;;4938006;29;20055;-78
2021/09/28 00:26:39;;;;;;;9.65;1.77;;;8.30;88.50;;;;;;4938171;29;20060;-78
2021/09/28 00:29:07;;;;;;;7.22;1.70;;;8.30;88.60;;;;;;4938059;29;20064;-78
2021/09/28 00:31:34;;;;;;;10.70;2.00;;;8.30;88.70;;;;;;4920706;29;20059;-78
2021/09/28 00:34:02;;;;;;;12.45;1.80;;;8.20;88.80;;;;;;4920124;29;20052;-77
2021/09/28 00:36:30;;;;;;;8.15;1.80;;;8.30;88.90;;;;;;4904948;29;20060;-78
2021/09/28 00:38:57;;;;;;;11.85;1.88;;;8.20;89.10;;;;;;4938422;29;20066;-78
2021/09/28 00:41:25;;;;;;;11.48;1.95;;;8.20;89.20;;;;;;4937892;29;20047;-78
2021/09/28 00:43:54;;;;;;;12.32;1.95;;;8.20;89.30;;;;;;4920913;29;20055;-78
2021/09/28 00:46:23;;;;;;;11.07;1.77;;;8.10;89.30;;;;;;4919865;29;20546;-79
2021/09/28 00:48:52;;;;;;;10.15;1.95;;;8.10;89.50;;;;;;4920815;29;20378;-78
2021/09/28 00:51:21;;;;;;;13.45;2.25;;;8.00;89.50;;;;;;4937471;29;20068;-78
2021/09/28 00:53:51;;;;;;;13.07;1.80;;;8.00;89.70;;;;;;4937783;29;20390;-79
2021/09/28 00:56:20;;;;;;;10.18;1.92;;;8.00;89.80;;;;;;4920861;29;20047;-79
2021/09/28 00:58:50;;;;;;;8.60;1.60;;;7.90;89.90;;;;;;4937468;29;20051;-79
2021/09/28 01:01:17;;;;;;;10.20;1.67;;;7.90;90.00;;;;;;4937843;29;20043;-78
2021/09/28 01:03:45;;;;;;;13.43;1.73;;;7.80;90.10;;;;;;4938288;29;20058;-78
2021/09/28 01:06:13;;;;;;;16.58;2.00;;;7.80;90.20;;;;;;4937607;29;20052;-78
2021/09/28 01:08:41;;;;;;;9.77;1.67;;;7.80;90.30;;;;;;4937364;29;20055;-79
2021/09/28 01:15:58;;;;;;;9.95;1.50;;;7.80;90.50;;;;;;4939476;29;20389;-78
2021/09/28 01:18:31;;;;;;;9.90;1.50;;;7.80;90.30;;;;;;4920726;29;20047;-78
2021/09/28 01:25:31;;;;;;;9.15;1.85;;;7.80;90.60;;;;;;4937069;29;20032;-78
2021/09/28 01:27:59;;;;;;;10.02;1.70;;;7.80;90.50;;;;;;4937498;29;20055;-78
2021/09/28 01:30:27;;;;;;;9.63;1.90;;;7.80;90.50;;;;;;4936865;29;20054;-78
2021/09/28 01:32:54;;;;;;;10.40;1.50;;;7.80;90.50;;;;;;4937081;29;20382;-78
2021/09/28 01:35:22;;;;;;;6.90;1.30;;;7.80;90.60;;;;;;4936745;29;20066;-79
2021/09/28 01:37:49;;;;;;;10.48;2.08;;;7.80;90.80;;;;;;4935724;29;20063;-78
2021/09/28 01:40:17;;;;;;;12.18;1.52;;;7.80;90.90;;;;;;4936346;29;20059;-78
2021/09/28 01:42:45;;;;;;;8.35;1.33;;;7.80;91.00;;;;;;4937172;29;20494;-79
2021/09/28 01:45:12;;;;;;;13.93;1.90;;;7.80;91.00;;;;;;4936465;29;20044;-79
2021/09/28 01:47:40;;;;;;;14.90;2.35;;;7.90;91.20;;;;;;4919033;29;20052;-78
2021/09/28 01:50:08;;;;;;;15.98;1.50;;;7.90;91.30;;;;;;4920117;29;20064;-78
2021/09/28 01:52:37;;;;;;;10.45;1.88;;;8.00;91.20;;;;;;4935800;29;20051;-78
2021/09/28 01:55:07;;;;;;;13.82;1.60;;;8.00;91.10;;;;;;4936802;29;20051;-78
2021/09/28 01:57:34;;;;;;;21.25;2.08;;;7.90;91.10;;;;;;4936658;29;20393;-78
2021/09/28 02:00:03;;;;;;;8.13;1.50;;;8.00;91.30;;;;;;4935750;29;20071;-78
2021/09/28 02:02:38;;;;;;;11.07;1.85;;;7.90;91.30;;;;;;4936946;29;20354;-79
2021/09/28 02:05:06;;;;;;;9.88;1.60;;;8.00;91.50;;;;;;4919017;29;20056;-78
2021/09/28 02:07:34;;;;;;;9.75;1.40;;;8.00;91.40;;;;;;4934883;29;20060;-79
2021/09/28 02:10:02;;;;;;;10.52;1.60;;;8.00;91.50;;;;;;4935979;29;20498;-78
2021/09/28 02:12:29;;;;;;;16.92;1.63;;;8.00;91.50;;;;;;4902948;29;20051;-78
2021/09/28 02:14:57;;;;;;;10.10;1.40;;;8.00;91.70;;;;;;4936129;29;20052;-78
2021/09/28 02:17:24;;;;;;;12.77;1.83;;;8.10;91.80;;;;;;4935408;29;20044;-78
2021/09/28 02:19:52;;;;;;;10.77;1.65;;;8.20;91.90;;;;;;4936647;29;20107;-79
2021/09/28 02:22:19;;;;;;;10.15;1.55;;;8.30;92.10;;;;;;4934944;29;20052;-79
2021/09/28 02:24:47;;;;;;;9.02;1.50;;;8.30;92.20;;;;;;4935496;29;20058;-79
2021/09/28 02:27:15;;;;;;;11.38;1.33;;;8.40;92.10;;;;;;4934868;29;20059;-79
2021/09/28 02:29:43;;;;;;;13.43;1.60;;;8.50;92.10;;;;;;4934480;29;20051;-79
2021/09/28 02:32:10;;;;;;;11.27;1.50;;;8.50;91.90;;;;;;4936150;29;20051;-79
2021/09/28 02:34:38;;;;;;;10.65;1.50;;;8.60;91.90;;;;;;4936274;29;20081;-79
2021/09/28 02:37:08;;;;;;;11.85;1.70;;;8.60;91.90;;;;;;4935727;29;20043;-79
2021/09/28 02:39:39;;;;;;;15.15;1.88;;;8.70;91.90;;;;;;4936449;29;20056;-80
2021/09/28 02:42:09;;;;;;;13.23;1.85;;;8.70;91.90;;;;;;4936172;29;20059;-80
2021/09/28 02:44:37;;;;;;;12.10;1.27;;;8.80;91.80;;;;;;4935019;29;20478;-79
2021/09/28 02:47:05;;;;;;;9.70;1.65;;;8.80;91.70;;;;;;4919204;29;20058;-79
2021/09/28 02:49:32;;;;;;;7.38;1.40;;;8.80;91.50;;;;;;4934910;29;20481;-79
2021/09/28 02:52:00;;;;;;;7.47;1.10;;;8.80;91.50;;;;;;4918175;29;20051;-79
2021/09/28 02:54:27;;;;;;;8.85;1.70;;;8.90;91.70;;;;;;4935609;29;20052;-79
2021/09/28 02:56:55;;;;;;;9.75;1.30;;;8.90;91.50;;;;;;4918099;29;20129;-79
2021/09/28 02:59:23;;;;;;;15.90;2.00;;;9.00;91.50;;;;;;4935456;29;20490;-79
2021/09/28 03:01:50;;;;;;;12.15;1.48;;;9.00;91.40;;;;;;4935401;29;20043;-79
2021/09/28 03:04:18;;;;;;;12.55;2.13;;;9.00;91.50;;;;;;4917961;29;20387;-79
2021/09/28 03:06:46;;;;;;;14.70;2.03;;;9.10;91.40;;;;;;4917847;29;20390;-79
2021/09/28 03:09:13;;;;;;;9.20;1.58;;;9.10;91.30;;;;;;4934982;29;20052;-79
2021/09/28 03:11:41;;;;;;;10.43;1.40;;;9.10;91.30;;;;;;4935281;29;20055;-79
2021/09/28 03:14:09;;;;;;;14.73;1.75;;;9.10;91.20;;;;;;4939236;29;20063;-79
2021/09/28 03:16:36;;;;;;;10.07;1.50;;;9.10;91.30;;;;;;4918350;29;20055;-79
2021/09/28 03:19:04;;;;;;;10.63;1.80;;;9.10;91.20;;;;;;4935379;29;20401;-79
2021/09/28 03:21:32;;;;;;;10.82;1.98;;;9.20;91.20;;;;;;4935271;29;20376;-79
2021/09/28 03:23:59;;;;;;;10.35;1.33;;;9.10;91.20;;;;;;4935420;29;20059;-79
2021/09/28 03:26:46;;;;;;;12.55;1.33;;;9.20;91.20;;;;;;4942301;29;20059;-79
2021/09/28 03:29:14;;;;;;;8.52;1.48;;;9.20;91.10;;;;;;4936009;29;20040;-79
2021/09/28 03:31:41;;;;;;;13.73;1.88;;;9.10;91.20;;;;;;4935656;29;20366;-79
2021/09/28 03:34:09;;;;;;;12.02;1.48;;;9.20;91.20;;;;;;4934646;29;20051;-78
2021/09/28 03:36:36;;;;;;;6.88;1.27;;;9.20;91.20;;;;;;4936928;29;20481;-80
2021/09/28 03:39:04;;;;;;;11.63;1.70;;;9.20;91.30;;;;;;4934219;29;20056;-80
2021/09/28 03:41:32;;;;;;;11.13;1.88;;;9.20;91.20;;;;;;4934700;29;20055;-79
2021/09/28 03:44:00;;;;;;;8.68;1.42;;;9.20;91.30;;;;;;4935404;29;20071;-79
2021/09/28 03:46:27;;;;;;;10.75;1.88;;;9.20;91.30;;;;;;4936098;29;20398;-79
2021/09/28 03:48:55;;;;;;;13.02;1.67;;;9.30;91.30;;;;;;4917596;29;20052;-79
2021/09/28 03:51:22;;;;;;;9.95;1.67;;;9.30;91.10;;;;;;4935362;29;20040;-79
2021/09/28 03:53:51;;;;;;;10.70;1.85;;;9.30;91.00;;;;;;4935000;29;20046;-79
2021/09/28 03:56:19;;;;;;;10.75;2.17;;;9.30;91.00;;;;;;4917360;29;20060;-77
2021/09/28 03:58:47;;;;;;;9.25;1.73;;;9.30;91.00;;;;;;4934911;29;20044;-79
2021/09/28 04:05:47;;;;;;;11.02;1.75;;;9.40;91.00;;;;;;4941791;29;20054;-79
2021/09/28 04:08:14;;;;;;;13.27;1.70;;;9.40;91.00;;;;;;4936371;29;20062;-76
2021/09/28 04:10:42;;;;;;;11.30;1.67;;;9.40;91.00;;;;;;4921018;29;20055;-79
2021/09/28 04:13:10;;;;;;;14.75;1.80;;;9.40;90.90;;;;;;4921168;29;20063;-77
2021/09/28 04:15:41;;;;;;;11.13;2.00;;;9.40;90.90;;;;;;4938711;29;20051;-77
2021/09/28 04:18:11;;;;;;;6.43;1.40;;;9.40;91.00;;;;;;4938735;29;20047;-77
2021/09/28 04:20:41;;;;;;;12.93;1.83;;;9.50;91.00;;;;;;4938216;29;20052;-78
2021/09/28 04:23:11;;;;;;;12.35;1.83;;;9.40;91.00;;;;;;4938777;29;20221;-78
2021/09/28 04:25:39;;;;;;;12.30;1.33;;;9.40;91.00;;;;;;4920672;29;20054;-78
2021/09/28 04:28:11;;;;;;;8.43;1.85;;;9.40;91.00;;;;;;4938704;29;20059;-78
2021/09/28 04:30:38;;;;;;;16.63;2.08;;;9.40;91.00;;;;;;4938213;29;20072;-78
2021/09/28 04:33:07;;;;;;;18.73;2.08;;;9.50;91.00;;;;;;4937547;29;20056;-78
2021/09/28 04:35:34;;;;;;;14.55;1.92;;;9.40;91.00;;;;;;4937926;29;20051;-78
2021/09/28 04:38:02;;;;;;;16.55;2.10;;;9.40;91.00;;;;;;4938347;29;20050;-78
2021/09/28 04:40:30;;;;;;;10.90;1.80;;;9.40;91.10;;;;;;4938196;29;20489;-78
2021/09/28 04:42:57;;;;;;;13.23;1.80;;;9.40;91.10;;;;;;4937722;29;20047;-78
2021/09/28 04:45:25;;;;;;;20.05;2.05;;;9.40;91.10;;;;;;4920983;29;20052;-78
2021/09/28 04:47:52;;;;;;;10.25;1.55;;;9.40;91.20;;;;;;4937936;29;20397;-77
2021/09/28 04:50:20;;;;;;;11.98;1.83;;;9.40;91.20;;;;;;4937077;29;20055;-77
2021/09/28 04:52:47;;;;;;;11.23;1.83;;;9.40;91.20;;;;;;4937622;29;20043;-77
2021/09/28 04:55:15;;;;;;;12.07;2.00;;;9.40;91.30;;;;;;4938046;29;20405;-77
2021/09/28 04:57:43;;;;;;;13.52;1.48;;;9.40;91.30;;;;;;4936358;29;20044;-78
2021/09/28 05:00:11;;;;;;;11.38;1.67;;;9.40;91.30;;;;;;4936547;29;20051;-78
2021/09/28 05:02:38;;;;;;;12.57;2.00;;;9.40;91.40;;;;;;4937404;29;20044;-77
2021/09/28 05:05:07;;;;;;;13.23;2.00;;;9.50;91.40;;;;;;4937827;29;20060;-77
2021/09/28 05:07:34;;;;;;;10.30;1.95;;;9.50;91.30;;;;;;4936947;29;20044;-78
2021/09/28 05:10:04;;;;;;;15.02;2.25;;;9.50;91.30;;;;;;4937445;29;20051;-78
2021/09/28 05:12:31;;;;;;;12.75;1.75;;;9.50;91.30;;;;;;4939500;29;20056;-79
2021/09/28 05:14:59;;;;;;;6.68;1.50;;;9.50;91.30;;;;;;4939646;29;20044;-79
2021/09/28 05:17:27;;;;;;;10.70;1.83;;;9.60;91.30;;;;;;4903813;29;20059;-79
2021/09/28 05:19:54;;;;;;;12.88;1.73;;;9.50;91.20;;;;;;4935925;29;20059;-79
2021/09/28 05:22:22;;;;;;;7.95;1.63;;;9.60;91.20;;;;;;4937008;29;20059;-79
2021/09/28 05:24:49;;;;;;;10.07;1.70;;;9.60;91.20;;;;;;4920494;29;20051;-80
2021/09/28 05:27:17;;;;;;;14.43;2.05;;;9.60;91.20;;;;;;4936870;29;20486;-78
2021/09/28 05:29:44;;;;;;;15.23;1.80;;;9.60;91.20;;;;;;4934537;29;20417;-79
2021/09/28 05:32:12;;;;;;;13.02;1.95;;;9.70;91.20;;;;;;4936237;29;20056;-79
2021/09/28 05:34:40;;;;;;;14.35;1.92;;;9.70;91.30;;;;;;4937037;29;20047;-79
2021/09/28 05:37:07;;;;;;;11.63;2.17;;;9.70;91.20;;;;;;4936521;29;20051;-79
2021/09/28 05:39:35;;;;;;;13.00;1.75;;;9.70;91.20;;;;;;4936803;29;20046;-77
2021/09/28 05:42:03;;;;;;;11.05;1.52;;;9.80;91.30;;;;;;4936659;29;20059;-79
2021/09/28 05:44:30;;;;;;;13.30;2.38;;;9.80;91.30;;;;;;4919947;29;20072;-79
2021/09/28 05:46:59;;;;;;;8.43;1.70;;;9.80;91.30;;;;;;4937343;29;20055;-77
2021/09/28 05:49:27;;;;;;;12.95;1.90;;;9.80;91.20;;;;;;4935867;29;20062;-77
2021/09/28 05:51:56;;;;;;;14.82;1.92;;;9.90;91.20;;;;;;4936525;29;20043;-77
2021/09/28 05:54:26;;;;;;;12.55;2.10;;;9.90;91.20;;;;;;4919286;29;20071;-77
2021/09/28 05:56:54;;;;;;;22.98;2.10;;;9.90;91.20;;;;;;4936532;29;20070;-78
2021/09/28 05:59:22;;;;;;;12.63;1.70;;;9.90;91.30;;;;;;4936261;29;20055;-77
2021/09/28 06:01:52;;;;;;;17.80;2.20;;;10.00;91.20;;;;;;4936307;29;20402;-77
2021/09/28 06:04:21;;;;;;;13.38;1.98;;;10.00;91.20;;;;;;4919514;29;20398;-77
2021/09/28 06:06:48;;;;;;;14.65;2.00;;;10.00;91.30;;;;;;4936477;29;20055;-77
2021/09/28 06:09:16;;;;;;;12.07;1.90;;;10.10;91.30;;;;;;4936273;29;20070;-77
2021/09/28 06:11:44;;;;;;;13.73;1.90;;;10.00;91.20;;;;;;4936589;29;20043;-78
2021/09/28 06:14:12;;;;;;;16.40;2.30;;;10.00;91.30;;;;;;4936400;29;20059;-77
2021/09/28 06:16:39;;;;;;;12.43;2.35;;;10.10;91.30;;;;;;4919478;29;20048;-77
2021/09/28 06:19:07;;;;;;;12.50;2.13;;;10.00;91.30;;;;;;4935800;29;20062;-77
2021/09/28 06:21:34;;;;;;;18.20;2.10;;;10.10;91.30;;;;;;4934894;29;20500;-77
2021/09/28 06:24:02;;;;;;;15.82;2.05;;;10.10;91.30;;;;;;4919319;29;20382;-77
2021/09/28 06:26:30;;;;;;;13.00;2.40;;;10.10;91.30;;;;;;4934634;29;20066;-77
2021/09/28 06:28:58;;;;;;;14.02;2.15;;;10.10;91.30;;;;;;4935925;29;20056;-77
2021/09/28 06:31:25;;;;;;;14.68;2.30;;;10.10;91.30;;;;;;4935767;29;20052;-77
2021/09/28 06:33:53;;;;;;;15.13;1.95;;;10.20;91.30;;;;;;4918853;29;20484;-77
2021/09/28 06:36:21;;;;;;;17.88;2.40;;;10.20;91.30;;;;;;4935027;29;20143;-77
2021/09/28 06:38:48;;;;;;;13.98;1.50;;;10.30;91.30;;;;;;4918874;29;20078;-77
2021/09/28 06:41:16;;;;;;;11.40;2.08;;;10.30;91.20;;;;;;4936046;29;20075;-77
2021/09/28 06:43:43;;;;;;;15.48;1.73;;;10.30;91.20;;;;;;4920547;29;20409;-77
2021/09/28 06:46:11;;;;;;;14.75;1.83;;;10.30;91.10;;;;;;4921045;29;20059;-76
2021/09/28 06:48:39;;;;;;;16.33;2.08;;;10.40;91.00;;;;;;4918489;29;20532;-77
2021/09/28 06:51:07;;;;;;;12.00;1.67;;;10.50;91.00;;;;;;4936309;29;20417;-77
2021/09/28 06:53:34;;;;;;;15.27;2.30;;;10.50;90.90;;;;;;4935989;29;20044;-77
2021/09/28 06:56:02;;;;;;;17.95;2.00;;;10.60;90.80;;;;;;4918264;29;20528;-77
2021/09/28 06:58:30;;;;;;;10.85;1.85;;;10.70;90.60;;;;;;4935957;29;20044;-77
2021/09/28 07:05:31;;;;;;;12.73;1.73;;;10.80;90.20;;;;;;4935733;29;20027;-79
2021/09/28 07:07:59;;;;;;;11.20;1.60;;;10.90;90.00;;;;;;4919963;29;20060;-79
2021/09/28 07:10:31;;;;;;;17.65;1.90;;;10.90;89.40;;;;;;4921652;29;20048;-77
2021/09/28 07:12:59;;;;;;;11.13;1.40;;;10.90;89.40;;;;;;4922809;29;20062;-78
2021/09/28 07:20:03;;;;;;;14.07;1.80;;;11.10;89.00;;;;;;4935241;29;20039;-77
2021/09/28 07:22:31;;;;;;;13.75;1.88;;;11.30;88.40;;;;;;4933816;29;20052;-77
2021/09/28 07:24:59;;;;;;;15.45;1.95;;;11.40;88.10;;;;;;4934893;29;20056;-77
2021/09/28 07:27:47;;;;;;;13.13;1.60;;;11.50;88.00;;;;;;4933154;29;20055;-79
2021/09/28 07:30:15;;;;;;;17.50;2.20;;;11.60;87.80;;;;;;4935198;29;20043;-79
2021/09/28 07:32:43;;;;;;;11.23;1.83;;;11.70;87.50;;;;;;4934912;29;20066;-79
2021/09/28 07:35:11;;;;;;;16.23;2.47;;;11.80;87.40;;;;;;4935167;29;20052;-79
2021/09/28 07:37:38;;;;;;;15.93;3.58;;;11.80;86.90;;;;;;4918423;29;20091;-79
2021/09/28 07:40:07;;;;;;;11.07;1.88;;;11.80;86.90;;;;;;4935565;29;20058;-79
2021/09/28 07:42:35;;;;;;;13.38;2.53;;;11.80;86.80;;;;;;4935348;29;20068;-77
2021/09/28 07:45:05;;;;;;;13.02;1.75;;;11.80;87.00;;;;;;4939575;29;20447;-77
2021/09/28 07:47:33;;;;;;;18.83;2.42;;;11.80;87.10;;;;;;4921322;29;20060;-77
2021/09/28 07:50:01;;;;;;;20.80;4.15;;;11.80;87.30;;;;;;4938742;29;20454;-79
2021/09/28 07:52:29;;;;;;;13.68;3.60;;;11.80;87.50;;;;;;4939118;29;20402;-78
2021/09/28 07:54:57;;;;;;;21.42;2.92;;;11.80;87.50;;;;;;4938948;29;20052;-80
2021/09/28 07:57:24;;;;;;;19.95;1.95;;;11.90;87.60;;;;;;4940086;29;20048;-79
2021/09/28 07:59:54;;;;;;;19.85;2.20;;;11.80;87.70;;;;;;4923592;29;20040;-79
2021/09/28 08:02:24;;;;;;;13.60;2.30;;;11.90;87.80;;;;;;4940422;29;20043;-79
2021/09/28 08:04:52;;;;;;;15.93;2.45;;;12.00;87.80;;;;;;4938568;29;20058;-78
2021/09/28 08:07:20;;;;;;;16.75;1.83;;;12.00;87.90;;;;;;4939221;29;20048;-78
2021/09/28 08:09:47;;;;;;;20.25;1.92;;;12.10;87.70;;;;;;4939024;29;20485;-78
2021/09/28 08:12:15;;;;;;;13.68;2.08;;;12.10;87.80;;;;;;4938615;29;20063;-78
2021/09/28 08:14:42;;;;;;;16.35;2.08;;;12.20;87.80;;;;;;4938386;29;20506;-77
2021/09/28 08:17:10;;;;;;;20.27;2.45;;;12.30;87.90;;;;;;4938382;29;20488;-78
2021/09/28 08:24:12;;;;;;;11.98;2.15;;;12.40;87.60;;;;;;4937419;29;20516;-80
2021/09/28 08:29:26;;;;;;;13.23;1.80;;;12.50;87.20;;;;;;4938458;29;20469;-79
2021/09/28 08:31:54;;;;;;;21.27;2.25;;;12.50;87.30;;;;;;4938634;29;20051;-79
2021/09/28 08:34:22;;;;;;;16.48;2.00;;;12.60;87.20;;;;;;4920912;29;20421;-79
2021/09/28 08:41:23;;;;;;;12.93;1.90;;;12.70;87.20;;;;;;4937990;29;20035;-80
2021/09/28 08:43:51;;;;;;;13.93;1.77;;;12.70;87.00;;;;;;4921062;29;20058;-80
2021/09/28 08:46:19;;;;;;;12.13;1.85;;;12.70;86.90;;;;;;4938120;29;20474;-79
2021/09/28 08:48:48;;;;;;;12.23;1.92;;;12.80;86.80;;;;;;4938130;29;20052;-79
2021/09/28 08:51:15;;;;;;;12.52;2.20;;;12.80;86.90;;;;;;4937584;29;20504;-76
2021/09/28 08:53:50;;;;;;;15.13;1.80;;;12.90;86.90;;;;;;4936859;29;20056;-80
2021/09/28 08:56:18;;;;;;;15.63;1.83;;;13.00;86.60;;;;;;4920234;29;20059;-81
2021/09/28 08:59:18;;;;;;;13.23;1.60;;;13.10;86.30;;;;;;4937588;29;20060;-81
2021/09/28 09:02:12;;;;;;;13.40;1.75;;;13.10;86.10;;;;;;4890413;29;20154;-81
2021/09/28 09:04:42;;;;;;;17.52;1.88;;;13.10;85.80;;;;;;4935831;29;20070;-80
2021/09/28 09:07:21;;;;;;;18.05;2.17;;;13.10;85.90;;;;;;4938475;29;20048;-80
2021/09/28 09:09:49;;;;;;;14.07;1.90;;;13.10;86.10;;;;;;4920836;29;20391;-81
2021/09/28 09:12:34;;;;;;;8.82;1.38;;;13.10;86.10;;;;;;4941011;29;20054;-81
2021/09/28 09:15:26;;;;;;;8.95;1.60;;;13.20;85.80;;;;;;4937075;29;20079;-81
2021/09/28 09:18:13;;;;;;;12.50;1.90;;;13.10;85.60;;;;;;4920052;29;20051;-80
2021/09/28 09:20:44;;;;;;;16.13;2.05;;;13.10;85.80;;;;;;4937765;29;20394;-79
2021/09/28 09:23:32;;;;;;;7.72;1.52;;;13.10;85.90;;;;;;4920729;29;20055;-80
2021/09/28 09:26:14;;;;;;;11.00;2.00;;;13.10;86.10;;;;;;4920433;29;20405;-81
2021/09/28 09:28:47;;;;;;;13.18;1.70;;;13.00;86.10;;;;;;4919748;29;20051;-81
2021/09/28 09:31:25;;;;;;;12.98;1.73;;;13.00;86.20;;;;;;4919869;29;20051;-81
2021/09/28 09:34:14;;;;;;;17.08;2.17;;;13.00;86.20;;;;;;4936630;29;20059;-80
2021/09/28 09:36:53;;;;;;;9.27;1.33;;;13.10;86.20;;;;;;4937283;29;20048;-81
2021/09/28 09:39:22;;;;;;;11.32;1.75;;;13.20;85.70;;;;;;4937178;29;20055;-81
2021/09/28 09:42:05;;;;;;;11.10;1.55;;;13.30;85.80;;;;;;4936760;29;20508;-80
2021/09/28 09:44:33;;;;;;;10.77;1.42;;;13.30;86.00;;;;;;4920176;29;20058;-80
2021/09/28 09:47:01;;;;;;;10.85;1.40;;;13.40;85.80;;;;;;4937439;29;20048;-81
2021/09/28 09:49:33;;;;;;;10.73;1.52;;;13.50;85.60;;;;;;4937424;29;20362;-81
2021/09/28 09:52:09;;;;;;;12.00;1.48;;;13.50;85.40;;;;;;4937601;29;20055;-81
2021/09/28 09:54:40;;;;;;;9.73;1.98;;;13.60;85.10;;;;;;4920363;29;20078;-81
2021/09/28 09:57:11;;;;;;;10.02;1.70;;;13.60;85.30;;;;;;4938538;29;20044;-79
2021/09/28 09:59:40;;;;;;;14.00;1.90;;;13.60;85.30;;;;;;4938771;29;20052;-78
2021/09/28 10:02:09;;;;;;;6.85;1.30;;;13.60;85.10;;;;;;4922032;29;20055;-80
2021/09/28 10:04:37;;;;;;;13.95;1.80;;;13.60;84.80;;;;;;4904082;29;20521;-79
2021/09/28 10:07:05;;;;;;;14.32;1.58;;;13.60;84.70;;;;;;4919754;29;20060;-79
2021/09/28 10:09:38;;;;;;;8.02;1.35;;;13.60;84.80;;;;;;4934776;29;20048;-80
2021/09/28 10:12:08;;;;;;;12.73;1.73;;;13.60;84.40;;;;;;4935059;29;20059;-80
2021/09/28 10:14:38;;;;;;;12.95;1.73;;;13.60;84.40;;;;;;4937102;29;20044;-80
2021/09/28 10:17:28;;;;;;;14.02;1.75;;;13.60;84.50;;;;;;4918916;29;20058;-79
2021/09/28 10:20:01;;;;;;;10.20;1.88;;;13.60;84.20;;;;;;4936796;29;20039;-79
2021/09/28 10:22:35;;;;;;;14.35;1.85;;;13.70;84.40;;;;;;4936558;29;20398;-79
2021/09/28 10:25:33;;;;;;;10.43;1.35;;;13.70;84.40;;;;;;4936487;29;20050;-79
2021/09/28 10:28:04;;;;;;;11.82;1.60;;;13.80;84.30;;;;;;4936538;29;20051;-79
2021/09/28 10:30:32;;;;;;;9.93;1.45;;;13.80;84.00;;;;;;4936681;29;20056;-79
2021/09/28 10:33:11;;;;;;;10.35;1.35;;;13.90;83.70;;;;;;4935382;29;20044;-79
2021/09/28 10:35:54;;;;;;;;;;;13.90;83.30;;;;;;4920882;29;20066;-80
2021/09/28 10:38:44;;;;;;;6.78;1.15;;;13.90;83.20;;;;;;4936597;29;19922;-79
2021/09/28 10:41:31;;;;;;;12.48;1.55;;;13.90;83.10;;;;;;4936620;29;20047;-79
2021/09/28 10:44:26;;;;;;;4.53;1.45;;;13.90;83.20;;;;;;4935689;29;20070;-80
2021/09/28 10:46:55;;;;;;;9.90;1.40;;;13.90;82.60;;;;;;4919369;29;20394;-79
2021/09/28 10:49:30;;;;;;;16.88;1.77;;;13.90;82.80;;;;;;4936457;29;20067;-80
2021/09/28 10:52:19;;;;;;;6.63;1.60;;;14.00;83.00;;;;;;4918315;29;20051;-80
2021/09/28 10:55:06;;;;;;;9.07;1.45;;;14.00;82.80;;;;;;4918546;29;20044;-80
2021/09/28 10:58:09;;;;;;;12.38;1.55;;;13.90;83.10;;;;;;4919695;29;20059;-80
2021/09/28 11:00:45;;;;;;;6.22;0.95;;;13.90;83.40;;;;;;4926743;29;20401;-80
2021/09/28 11:03:13;;;;;;;8.43;1.00;;;13.90;83.60;;;;;;4918989;29;20084;-80
2021/09/28 11:05:42;;;;;;;5.40;1.30;;;13.90;83.50;;;;;;4936416;29;20454;-80
2021/09/28 11:08:14;;;;;;;11.77;1.42;;;13.80;83.60;;;;;;4918419;29;20066;-80
2021/09/28 11:10:55;;;;;;;11.75;1.75;;;13.80;83.90;;;;;;4922175;29;20058;-80
2021/09/28 11:13:28;;;;;;;10.05;1.50;;;13.80;84.00;;;;;;4937578;29;20470;-79
2021/09/28 11:16:00;;;;;;;8.63;1.38;;;13.80;84.50;;;;;;4935963;29;20040;-78
2021/09/28 11:18:28;;;;;;;9.45;1.42;;;13.70;84.90;;;;;;4921301;29;20054;-78
2021/09/28 11:21:10;;;;;;;13.85;1.60;;;13.60;85.20;;;;;;4939264;29;20055;-78
2021/09/28 11:23:41;;;;;;;7.93;1.10;;;13.60;85.60;;;;;;4922560;29;20051;-77
2021/09/28 11:26:09;;;;;;;8.20;1.45;;;13.60;86.00;;;;;;4940028;29;20359;-77
2021/09/28 11:28:49;;;;;;;10.95;1.70;;;13.60;86.30;;;;;;4921593;29;20060;-77
2021/09/28 11:31:17;;;;;;;9.18;1.50;;;13.50;86.40;;;;;;4939772;29;20371;-78
2021/09/28 11:33:46;;;;;;;10.15;1.60;;;13.60;86.60;;;;;;4938829;29;20060;-77
2021/09/28 11:36:16;;;;;;;9.63;1.40;;;13.70;86.70;;;;;;4922199;29;20063;-77
2021/09/28 11:38:47;;;;;;;11.73;2.08;;;13.70;86.80;;;;;;4939805;29;20425;-76
2021/09/28 11:41:20;;;;;;;13.60;1.95;;;13.80;86.80;;;;;;4923504;29;20071;-77
2021/09/28 11:43:56;;;;;;;10.80;1.60;;;13.80;86.70;;;;;;4939519;29;20047;-76
2021/09/28 11:46:29;;;;;;;10.98;2.00;;;14.00;86.60;;;;;;4939090;29;20505;-77
2021/09/28 11:49:05;;;;;;;10.98;1.98;;;14.00;86.30;;;;;;4922613;29;20504;-77
2021/09/28 11:51:44;;;;;;;12.00;2.08;;;14.10;86.20;;;;;;4938377;29;20059;-77
2021/09/28 11:54:15;;;;;;;9.70;1.77;;;14.20;86.30;;;;;;4939171;29;20075;-78
2021/09/28 11:56:45;;;;;;;13.43;1.70;;;14.20;86.10;;;;;;4939474;29;20390;-77
2021/09/28 11:59:14;;;;;;;11.68;1.98;;;14.30;86.10;;;;;;4938576;29;20052;-77
2021/09/28 12:01:43;;;;;;;9.10;1.70;;;14.20;86.00;;;;;;4937452;29;20489;-77
2021/09/28 12:07:09;;;;;;;15.38;2.25;;;14.30;86.20;;;;;;4938443;29;20051;-78
2021/09/28 12:09:40;;;;;;;12.32;1.90;;;14.20;86.40;;;;;;4938563;29;20055;-71
2021/09/28 12:12:09;;;;;;;12.32;2.20;;;14.10;86.40;;;;;;4938701;29;20054;-70
2021/09/28 12:14:55;;;;;;;15.20;1.77;;;14.10;86.60;;;;;;4937466;29;20066;-70
2021/09/28 12:17:24;;;;;;;21.58;2.75;;;14.00;86.60;;;;;;4938359;29;20048;-69
2021/09/28 12:20:00;;;;;;;13.48;2.40;;;13.90;86.70;;;;;;4938135;29;20524;-70
2021/09/28 12:22:33;;;;;;;15.85;2.42;;;13.80;87.10;;;;;;4921909;29;20462;-70
2021/09/28 12:25:09;;;;;;;13.95;2.40;;;13.80;87.40;;;;;;4921574;29;20465;-70
2021/09/28 12:27:37;;;;;;;14.75;2.33;;;13.60;87.60;;;;;;4921435;29;20054;-70
2021/09/28 12:30:09;;;;;;;17.85;2.50;;;13.50;87.90;;;;;;4938218;29;20051;-69
2021/09/28 12:32:36;;;;;;;16.23;3.10;;;13.50;88.10;;;;;;4938068;29;20426;-68
2021/09/28 12:35:12;;;;;;;11.20;2.35;;;13.50;88.30;;;;;;4921034;29;20074;-69
2021/09/28 12:37:50;;;;;;;8.00;1.90;;;13.40;88.50;;;;;;4938737;29;20055;-69
2021/09/28 12:40:24;;;;;;;9.20;1.80;;;13.30;88.60;;;;;;4905856;29;20066;-70
2021/09/28 12:43:09;;;;;;;15.65;2.40;;;13.30;88.70;;;;;;4936371;29;20058;-71
2021/09/28 12:45:43;;;;;;;10.80;1.65;;;13.20;88.80;;;;;;4921112;29;20067;-70
2021/09/28 12:48:12;;;;;;;8.57;2.10;;;13.10;88.80;;;;;;4937922;29;20051;-70
2021/09/28 12:50:41;;;;;;;6.90;1.50;;;13.00;89.00;;;;;;4936468;29;20052;-69
2021/09/28 12:53:14;;;;;;;9.95;2.10;;;12.90;89.20;;;;;;4936600;29;20052;-69
2021/09/28 12:55:46;;;;;;;14.70;1.95;;;12.90;89.30;;;;;;4937914;29;20370;-73
2021/09/28 12:58:15;;;;;;;13.00;1.83;;;12.80;89.60;;;;;;4921151;29;20066;-73
2021/09/28 13:00:43;;;;;;;10.10;1.42;;;12.80;90.00;;;;;;4920902;29;20499;-71
2021/09/28 13:03:19;;;;;;;4.88;0.80;;;12.70;90.30;;;;;;4921028;29;20374;-71
2021/09/28 13:05:54;;;;;;;6.03;1.02;;;12.60;89.90;;;;;;4936713;29;20047;-70
2021/09/28 13:08:22;;;;;;;4.85;0.82;;;12.50;89.90;;;;;;4937936;29;20389;-69
2021/09/28 13:10:58;;;;;;;3.60;0.40;;;12.40;89.50;;;;;;4938133;29;20461;-70
2021/09/28 13:13:29;;;;;;;3.20;0.30;;;12.30;89.50;;;;;;4937619;29;20051;-72
2021/09/28 13:15:56;;;;;;;1.63;0.40;;;12.20;89.20;;;;;;4921060;29;20415;-70
2021/09/28 13:18:24;;;;;;;2.97;0.30;;;12.10;89.40;;;;;;4937197;29;20044;-69
2021/09/28 13:20:52;;;;;;;1.15;0.30;;;12.00;89.50;;;;;;4937111;29;20063;-69
2021/09/28 13:23:20;;;;;;;1.25;0.35;;;11.90;89.50;;;;;;4937058;29;20051;-70
2021/09/28 13:25:48;;;;;;;1.30;0.30;;;11.90;89.30;;;;;;4937014;29;20047;-69
2021/09/28 13:28:16;;;;;;;1.33;0.38;;;11.80;89.50;;;;;;4936965;29;20532;-69
2021/09/28 13:30:45;;;;;;;1.63;0.30;;;11.80;89.70;;;;;;4936847;29;20047;-69
2021/09/28 13:33:13;;;;;;;2.70;0.28;;;11.80;89.90;;;;;;4937384;29;20048;-69
2021/09/28 13:35:41;;;;;;;0.55;0.15;;;11.70;90.10;;;;;;4936919;29;20481;-69
2021/09/28 13:38:09;;;;;;;0.57;0.30;;;11.70;90.40;;;;;;4936867;29;20498;-69
2021/09/28 13:40:36;;;;;;;0.93;0.38;;;11.70;90.40;;;;;;4919007;29;20059;-69
2021/09/28 13:43:04;;;;;;;3.35;0.40;;;11.70;90.60;;;;;;4936854;29;20393;-69